sensor_id;sensor_type;location;lat;lon;timestamp;temperature;humidity
5466;DHT22;2755;50.728;7.108;2022-07-24T00:02:17;17.80;99.90
5466;DHT22;2755;50.728;7.108;2022-07-24T00:04:43;17.30;99.90
5466;DHT22;2755;50.728;7.108;2022-07-24T00:09:34;16.30;99.90
5466;DHT22;2755;50.728;7.108;2022-07-24T00:12:00;17.30;99.90
5466;DHT22;2755;50.728;7.108;2022-07-24T00:14:26;17.40;99.90
5466;DHT22;2755;50.728;7.108;2022-07-24T00:19:17;17.60;99.90
5466;DHT22;2755;50.728;7.108;2022-07-24T00:21:43;17.50;99.90
5466;DHT22;2755;50.728;7.108;2022-07-24T00:24:09;17.30;99.90
5466;DHT22;2755;50.728;7.108;2022-07-24T00:26:35;16.80;99.90
5466;DHT22;2755;50.728;7.108;2022-07-24T00:29:00;17.00;99.90
5466;DHT22;2755;50.728;7.108;2022-07-24T00:31:26;16.70;99.90
5466;DHT22;2755;50.728;7.108;2022-07-24T00:33:52;16.80;99.90
5466;DHT22;2755;50.728;7.108;2022-07-24T00:36:17;17.00;99.90
5466;DHT22;2755;50.728;7.108;2022-07-24T00:38:43;17.10;99.90
5466;DHT22;2755;50.728;7.108;2022-07-24T00:41:09;17.00;99.90
5466;DHT22;2755;50.728;7.108;2022-07-24T00:46:00;16.50;99.90
5466;DHT22;2755;50.728;7.108;2022-07-24T00:48:26;17.00;99.90
5466;DHT22;2755;50.728;7.108;2022-07-24T00:50:51;17.60;99.90
5466;DHT22;2755;50.728;7.108;2022-07-24T00:53:17;16.60;99.90
5466;DHT22;2755;50.728;7.108;2022-07-24T00:55:43;17.00;99.90
5466;DHT22;2755;50.728;7.108;2022-07-24T01:03:01;17.20;99.90
5466;DHT22;2755;50.728;7.108;2022-07-24T01:05:27;16.80;99.90
5466;DHT22;2755;50.728;7.108;2022-07-24T01:07:53;17.70;99.90
5466;DHT22;2755;50.728;7.108;2022-07-24T01:10:18;16.50;99.90
5466;DHT22;2755;50.728;7.108;2022-07-24T01:12:44;17.10;99.90
5466;DHT22;2755;50.728;7.108;2022-07-24T01:15:11;16.50;99.90
5466;DHT22;2755;50.728;7.108;2022-07-24T01:17:38;16.70;99.90
5466;DHT22;2755;50.728;7.108;2022-07-24T01:22:31;16.50;99.90
5466;DHT22;2755;50.728;7.108;2022-07-24T01:24:57;16.90;99.90
5466;DHT22;2755;50.728;7.108;2022-07-24T01:27:23;16.60;99.90
5466;DHT22;2755;50.728;7.108;2022-07-24T01:32:15;16.70;99.90
5466;DHT22;2755;50.728;7.108;2022-07-24T01:34:41;16.50;99.90
5466;DHT22;2755;50.728;7.108;2022-07-24T01:37:07;16.80;99.90
5466;DHT22;2755;50.728;7.108;2022-07-24T01:39:32;16.70;99.90
5466;DHT22;2755;50.728;7.108;2022-07-24T01:41:58;16.60;99.90
5466;DHT22;2755;50.728;7.108;2022-07-24T01:44:24;16.50;99.90
5466;DHT22;2755;50.728;7.108;2022-07-24T01:46:49;17.00;99.90
5466;DHT22;2755;50.728;7.108;2022-07-24T01:49:15;16.40;99.90
5466;DHT22;2755;50.728;7.108;2022-07-24T01:54:07;16.40;99.90
5466;DHT22;2755;50.728;7.108;2022-07-24T01:56:33;16.30;99.90
5466;DHT22;2755;50.728;7.108;2022-07-24T01:58:58;16.10;99.90
5466;DHT22;2755;50.728;7.108;2022-07-24T02:01:25;15.20;99.90
5466;DHT22;2755;50.728;7.108;2022-07-24T02:03:51;16.10;99.90
5466;DHT22;2755;50.728;7.108;2022-07-24T02:08:44;16.40;99.90
5466;DHT22;2755;50.728;7.108;2022-07-24T02:11:09;16.40;99.90
5466;DHT22;2755;50.728;7.108;2022-07-24T02:13:35;16.30;99.90
5466;DHT22;2755;50.728;7.108;2022-07-24T02:16:01;16.10;99.90
5466;DHT22;2755;50.728;7.108;2022-07-24T02:20:53;16.10;99.90
5466;DHT22;2755;50.728;7.108;2022-07-24T02:23:18;16.80;99.90
5466;DHT22;2755;50.728;7.108;2022-07-24T02:25:46;16.00;99.90
5466;DHT22;2755;50.728;7.108;2022-07-24T02:28:12;16.00;99.90
5466;DHT22;2755;50.728;7.108;2022-07-24T02:37:56;15.90;99.90
5466;DHT22;2755;50.728;7.108;2022-07-24T02:40:21;16.00;99.90
5466;DHT22;2755;50.728;7.108;2022-07-24T02:42:47;16.10;99.90
5466;DHT22;2755;50.728;7.108;2022-07-24T02:50:12;16.00;99.90
5466;DHT22;2755;50.728;7.108;2022-07-24T02:52:38;15.20;99.90
5466;DHT22;2755;50.728;7.108;2022-07-24T02:59:56;16.70;99.90
5466;DHT22;2755;50.728;7.108;2022-07-24T03:04:47;15.70;99.90
5466;DHT22;2755;50.728;7.108;2022-07-24T03:12:05;15.90;99.90
5466;DHT22;2755;50.728;7.108;2022-07-24T03:14:31;15.90;99.90
5466;DHT22;2755;50.728;7.108;2022-07-24T03:19:22;15.00;99.90
5466;DHT22;2755;50.728;7.108;2022-07-24T03:21:48;15.50;99.90
5466;DHT22;2755;50.728;7.108;2022-07-24T03:29:05;15.80;99.90
5466;DHT22;2755;50.728;7.108;2022-07-24T03:33:57;15.90;99.90
5466;DHT22;2755;50.728;7.108;2022-07-24T03:38:48;16.00;99.90
5466;DHT22;2755;50.728;7.108;2022-07-24T03:43:40;15.60;99.90
5466;DHT22;2755;50.728;7.108;2022-07-24T03:46:05;15.90;99.90
5466;DHT22;2755;50.728;7.108;2022-07-24T03:48:31;14.90;99.90
5466;DHT22;2755;50.728;7.108;2022-07-24T03:50:57;15.70;99.90
5466;DHT22;2755;50.728;7.108;2022-07-24T03:53:23;16.00;99.90
5466;DHT22;2755;50.728;7.108;2022-07-24T03:55:49;15.90;99.90
5466;DHT22;2755;50.728;7.108;2022-07-24T04:00:40;15.80;99.90
5466;DHT22;2755;50.728;7.108;2022-07-24T04:10:24;16.10;99.90
5466;DHT22;2755;50.728;7.108;2022-07-24T04:12:49;16.00;99.90
5466;DHT22;2755;50.728;7.108;2022-07-24T04:15:15;16.10;99.90
5466;DHT22;2755;50.728;7.108;2022-07-24T04:17:41;16.40;99.90
5466;DHT22;2755;50.728;7.108;2022-07-24T04:22:40;16.30;99.90
5466;DHT22;2755;50.728;7.108;2022-07-24T04:25:07;16.30;99.90
5466;DHT22;2755;50.728;7.108;2022-07-24T04:32:26;16.80;99.90
5466;DHT22;2755;50.728;7.108;2022-07-24T04:34:51;16.60;99.90
5466;DHT22;2755;50.728;7.108;2022-07-24T04:37:17;16.70;99.90
5466;DHT22;2755;50.728;7.108;2022-07-24T04:42:09;17.20;99.90
5466;DHT22;2755;50.728;7.108;2022-07-24T04:47:00;16.40;99.90
5466;DHT22;2755;50.728;7.108;2022-07-24T04:49:26;17.10;99.90
5466;DHT22;2755;50.728;7.108;2022-07-24T04:51:51;17.20;99.90
5466;DHT22;2755;50.728;7.108;2022-07-24T04:54:17;17.60;99.90
5466;DHT22;2755;50.728;7.108;2022-07-24T04:56:42;17.70;99.90
5466;DHT22;2755;50.728;7.108;2022-07-24T04:59:08;17.50;99.90
5466;DHT22;2755;50.728;7.108;2022-07-24T05:01:33;18.10;99.90
5466;DHT22;2755;50.728;7.108;2022-07-24T05:03:59;18.10;99.90
5466;DHT22;2755;50.728;7.108;2022-07-24T05:06:25;18.20;99.90
5466;DHT22;2755;50.728;7.108;2022-07-24T05:08:51;18.10;99.90
5466;DHT22;2755;50.728;7.108;2022-07-24T05:11:16;18.00;99.90
5466;DHT22;2755;50.728;7.108;2022-07-24T05:13:42;18.50;99.90
5466;DHT22;2755;50.728;7.108;2022-07-24T05:18:34;18.60;99.90
5466;DHT22;2755;50.728;7.108;2022-07-24T05:23:25;18.80;99.90
5466;DHT22;2755;50.728;7.108;2022-07-24T05:25:51;18.80;99.90
5466;DHT22;2755;50.728;7.108;2022-07-24T05:28:17;18.90;99.90
5466;DHT22;2755;50.728;7.108;2022-07-24T05:30:43;19.60;99.90
5466;DHT22;2755;50.728;7.108;2022-07-24T05:33:08;19.50;99.90
5466;DHT22;2755;50.728;7.108;2022-07-24T05:38:00;19.70;99.90
5466;DHT22;2755;50.728;7.108;2022-07-24T05:40:26;19.90;99.90
5466;DHT22;2755;50.728;7.108;2022-07-24T05:45:17;20.30;99.90
5466;DHT22;2755;50.728;7.108;2022-07-24T05:47:43;21.10;99.90
5466;DHT22;2755;50.728;7.108;2022-07-24T05:50:11;20.70;99.90
5466;DHT22;2755;50.728;7.108;2022-07-24T05:55:03;21.40;99.90
5466;DHT22;2755;50.728;7.108;2022-07-24T05:57:29;21.60;99.90
5466;DHT22;2755;50.728;7.108;2022-07-24T05:59:54;21.70;99.90
5466;DHT22;2755;50.728;7.108;2022-07-24T06:04:46;22.20;99.90
5466;DHT22;2755;50.728;7.108;2022-07-24T06:07:12;22.80;99.90
5466;DHT22;2755;50.728;7.108;2022-07-24T06:09:38;23.00;99.90
5466;DHT22;2755;50.728;7.108;2022-07-24T06:12:04;22.90;99.90
5466;DHT22;2755;50.728;7.108;2022-07-24T06:14:32;22.60;99.90
5466;DHT22;2755;50.728;7.108;2022-07-24T06:16:58;23.20;99.90
5466;DHT22;2755;50.728;7.108;2022-07-24T06:21:50;23.40;99.90
5466;DHT22;2755;50.728;7.108;2022-07-24T06:31:33;24.90;99.80
5466;DHT22;2755;50.728;7.108;2022-07-24T06:36:25;25.30;98.00
5466;DHT22;2755;50.728;7.108;2022-07-24T06:41:17;25.30;96.50
5466;DHT22;2755;50.728;7.108;2022-07-24T06:46:08;25.50;96.50
5466;DHT22;2755;50.728;7.108;2022-07-24T06:51:00;25.20;94.60
5466;DHT22;2755;50.728;7.108;2022-07-24T06:55:52;25.70;94.20
5466;DHT22;2755;50.728;7.108;2022-07-24T07:00:46;26.00;93.80
5466;DHT22;2755;50.728;7.108;2022-07-24T07:03:12;25.70;93.70
5466;DHT22;2755;50.728;7.108;2022-07-24T07:05:38;26.30;94.60
5466;DHT22;2755;50.728;7.108;2022-07-24T07:08:03;26.60;93.10
5466;DHT22;2755;50.728;7.108;2022-07-24T07:10:29;26.90;93.80
5466;DHT22;2755;50.728;7.108;2022-07-24T07:15:21;26.60;92.90
5466;DHT22;2755;50.728;7.108;2022-07-24T07:17:47;27.70;91.70
5466;DHT22;2755;50.728;7.108;2022-07-24T07:20:14;27.40;90.30
5466;DHT22;2755;50.728;7.108;2022-07-24T07:22:41;27.40;91.10
5466;DHT22;2755;50.728;7.108;2022-07-24T07:25:07;28.30;90.90
5466;DHT22;2755;50.728;7.108;2022-07-24T07:27:34;27.60;91.20
5466;DHT22;2755;50.728;7.108;2022-07-24T07:30:06;27.90;88.20
5466;DHT22;2755;50.728;7.108;2022-07-24T07:32:33;28.30;90.30
5466;DHT22;2755;50.728;7.108;2022-07-24T07:34:59;28.40;90.80
5466;DHT22;2755;50.728;7.108;2022-07-24T07:37:25;28.60;87.00
5466;DHT22;2755;50.728;7.108;2022-07-24T07:42:16;28.80;84.00
5466;DHT22;2755;50.728;7.108;2022-07-24T07:49:34;29.30;84.30
5466;DHT22;2755;50.728;7.108;2022-07-24T07:51:59;29.60;86.60
5466;DHT22;2755;50.728;7.108;2022-07-24T07:54:25;30.20;84.70
5466;DHT22;2755;50.728;7.108;2022-07-24T07:56:51;30.20;83.60
5466;DHT22;2755;50.728;7.108;2022-07-24T07:59:16;30.40;81.10
5466;DHT22;2755;50.728;7.108;2022-07-24T08:01:42;31.00;82.40
5466;DHT22;2755;50.728;7.108;2022-07-24T08:08:59;31.20;77.40
5466;DHT22;2755;50.728;7.108;2022-07-24T08:16:17;31.30;77.00
5466;DHT22;2755;50.728;7.108;2022-07-24T08:18:49;31.10;74.50
5466;DHT22;2755;50.728;7.108;2022-07-24T08:21:15;31.00;73.90
5466;DHT22;2755;50.728;7.108;2022-07-24T08:23:41;30.50;73.60
5466;DHT22;2755;50.728;7.108;2022-07-24T08:28:32;30.60;78.00
5466;DHT22;2755;50.728;7.108;2022-07-24T08:30:58;31.20;70.60
5466;DHT22;2755;50.728;7.108;2022-07-24T08:35:49;31.00;73.00
5466;DHT22;2755;50.728;7.108;2022-07-24T08:38:15;31.30;72.10
5466;DHT22;2755;50.728;7.108;2022-07-24T08:40:41;31.70;71.30
5466;DHT22;2755;50.728;7.108;2022-07-24T08:43:08;31.20;72.40
5466;DHT22;2755;50.728;7.108;2022-07-24T08:45:36;31.70;67.10
5466;DHT22;2755;50.728;7.108;2022-07-24T08:48:08;31.80;68.90
5466;DHT22;2755;50.728;7.108;2022-07-24T08:50:36;31.00;69.10
5466;DHT22;2755;50.728;7.108;2022-07-24T08:53:04;31.80;70.70
5466;DHT22;2755;50.728;7.108;2022-07-24T08:55:30;33.00;75.50
5466;DHT22;2755;50.728;7.108;2022-07-24T08:57:56;32.20;70.00
5466;DHT22;2755;50.728;7.108;2022-07-24T09:00:24;31.80;65.40
5466;DHT22;2755;50.728;7.108;2022-07-24T09:02:49;32.50;67.20
5466;DHT22;2755;50.728;7.108;2022-07-24T09:05:15;32.60;64.90
5466;DHT22;2755;50.728;7.108;2022-07-24T09:07:41;32.60;66.00
5466;DHT22;2755;50.728;7.108;2022-07-24T09:10:12;32.20;64.00
5466;DHT22;2755;50.728;7.108;2022-07-24T09:12:41;32.20;63.20
5466;DHT22;2755;50.728;7.108;2022-07-24T09:15:19;32.20;62.90
5466;DHT22;2755;50.728;7.108;2022-07-24T09:20:14;32.00;65.20
5466;DHT22;2755;50.728;7.108;2022-07-24T09:22:41;32.50;61.90
5466;DHT22;2755;50.728;7.108;2022-07-24T09:27:38;33.00;66.40
5466;DHT22;2755;50.728;7.108;2022-07-24T09:30:05;32.60;65.20
5466;DHT22;2755;50.728;7.108;2022-07-24T09:32:31;33.80;66.20
5466;DHT22;2755;50.728;7.108;2022-07-24T09:37:26;34.60;61.10
5466;DHT22;2755;50.728;7.108;2022-07-24T09:39:52;33.30;64.60
5466;DHT22;2755;50.728;7.108;2022-07-24T09:42:18;33.60;59.30
5466;DHT22;2755;50.728;7.108;2022-07-24T09:44:57;33.90;57.50
5466;DHT22;2755;50.728;7.108;2022-07-24T09:47:23;34.10;59.50
5466;DHT22;2755;50.728;7.108;2022-07-24T09:49:48;34.80;56.80
5466;DHT22;2755;50.728;7.108;2022-07-24T09:52:15;33.60;57.30
5466;DHT22;2755;50.728;7.108;2022-07-24T09:54:46;33.30;56.80
5466;DHT22;2755;50.728;7.108;2022-07-24T09:57:27;33.40;59.10
5466;DHT22;2755;50.728;7.108;2022-07-24T09:59:55;33.40;55.20
5466;DHT22;2755;50.728;7.108;2022-07-24T10:02:26;33.30;56.40
5466;DHT22;2755;50.728;7.108;2022-07-24T10:07:20;33.80;54.20
5466;DHT22;2755;50.728;7.108;2022-07-24T10:09:49;34.00;53.90
5466;DHT22;2755;50.728;7.108;2022-07-24T10:12:16;35.50;58.30
5466;DHT22;2755;50.728;7.108;2022-07-24T10:14:44;34.40;56.30
5466;DHT22;2755;50.728;7.108;2022-07-24T10:17:11;33.90;56.50
5466;DHT22;2755;50.728;7.108;2022-07-24T10:19:45;34.00;53.80
5466;DHT22;2755;50.728;7.108;2022-07-24T10:22:19;33.60;54.90
5466;DHT22;2755;50.728;7.108;2022-07-24T10:32:24;33.00;51.40
5466;DHT22;2755;50.728;7.108;2022-07-24T10:56:21;34.70;48.60
5466;DHT22;2755;50.728;7.108;2022-07-24T11:03:53;34.40;46.60
5466;DHT22;2755;50.728;7.108;2022-07-24T11:06:47;34.20;47.10
5466;DHT22;2755;50.728;7.108;2022-07-24T11:09:14;34.20;47.30
5466;DHT22;2755;50.728;7.108;2022-07-24T11:21:38;35.00;50.30
5466;DHT22;2755;50.728;7.108;2022-07-24T11:32:05;35.10;47.50
5466;DHT22;2755;50.728;7.108;2022-07-24T11:34:31;34.80;47.60
5466;DHT22;2755;50.728;7.108;2022-07-24T11:36:58;35.40;46.60
5466;DHT22;2755;50.728;7.108;2022-07-24T11:39:36;35.10;44.30
5466;DHT22;2755;50.728;7.108;2022-07-24T11:44:41;35.20;45.50
5466;DHT22;2755;50.728;7.108;2022-07-24T11:47:14;35.30;44.30
5466;DHT22;2755;50.728;7.108;2022-07-24T11:49:52;35.70;49.10
5466;DHT22;2755;50.728;7.108;2022-07-24T11:52:25;35.70;44.70
5466;DHT22;2755;50.728;7.108;2022-07-24T11:54:54;37.10;44.40
5466;DHT22;2755;50.728;7.108;2022-07-24T11:57:32;35.20;44.30
5466;DHT22;2755;50.728;7.108;2022-07-24T11:59:58;35.80;44.80
5466;DHT22;2755;50.728;7.108;2022-07-24T12:02:24;35.20;40.70
5466;DHT22;2755;50.728;7.108;2022-07-24T12:04:50;35.80;44.50
5466;DHT22;2755;50.728;7.108;2022-07-24T12:07:19;35.30;44.20
5466;DHT22;2755;50.728;7.108;2022-07-24T12:10:03;35.20;40.70
5466;DHT22;2755;50.728;7.108;2022-07-24T12:12:33;35.50;43.50
5466;DHT22;2755;50.728;7.108;2022-07-24T12:15:07;35.40;41.00
5466;DHT22;2755;50.728;7.108;2022-07-24T12:17:35;35.60;41.20
5466;DHT22;2755;50.728;7.108;2022-07-24T12:20:24;35.70;41.40
5466;DHT22;2755;50.728;7.108;2022-07-24T12:25:16;36.00;42.40
5466;DHT22;2755;50.728;7.108;2022-07-24T12:27:44;35.60;42.30
5466;DHT22;2755;50.728;7.108;2022-07-24T12:30:23;36.00;41.70
5466;DHT22;2755;50.728;7.108;2022-07-24T12:35:26;36.80;42.90
5466;DHT22;2755;50.728;7.108;2022-07-24T12:37:52;36.40;40.70
5466;DHT22;2755;50.728;7.108;2022-07-24T12:40:26;36.40;43.10
5466;DHT22;2755;50.728;7.108;2022-07-24T12:43:08;36.40;40.80
5466;DHT22;2755;50.728;7.108;2022-07-24T12:53:05;36.70;41.90
5466;DHT22;2755;50.728;7.108;2022-07-24T12:55:31;37.00;41.70
5466;DHT22;2755;50.728;7.108;2022-07-24T12:58:03;37.00;41.60
5466;DHT22;2755;50.728;7.108;2022-07-24T13:00:30;36.90;39.00
5466;DHT22;2755;50.728;7.108;2022-07-24T13:02:56;37.60;40.60
5466;DHT22;2755;50.728;7.108;2022-07-24T13:05:42;36.70;37.30
5466;DHT22;2755;50.728;7.108;2022-07-24T13:10:36;36.40;39.10
5466;DHT22;2755;50.728;7.108;2022-07-24T13:15:28;36.70;39.20
5466;DHT22;2755;50.728;7.108;2022-07-24T13:27:38;35.70;39.20
5466;DHT22;2755;50.728;7.108;2022-07-24T13:30:04;35.50;39.70
5466;DHT22;2755;50.728;7.108;2022-07-24T13:32:29;35.80;41.60
5466;DHT22;2755;50.728;7.108;2022-07-24T13:34:55;35.80;39.30
5466;DHT22;2755;50.728;7.108;2022-07-24T13:37:21;35.70;40.20
5466;DHT22;2755;50.728;7.108;2022-07-24T13:42:12;35.10;40.40
5466;DHT22;2755;50.728;7.108;2022-07-24T13:44:40;35.20;41.30
5466;DHT22;2755;50.728;7.108;2022-07-24T13:51:58;32.80;40.40
5466;DHT22;2755;50.728;7.108;2022-07-24T13:54:24;34.30;41.70
5466;DHT22;2755;50.728;7.108;2022-07-24T13:56:50;33.90;43.80
5466;DHT22;2755;50.728;7.108;2022-07-24T13:59:15;34.30;43.50
5466;DHT22;2755;50.728;7.108;2022-07-24T14:04:07;33.10;45.60
5466;DHT22;2755;50.728;7.108;2022-07-24T14:06:34;32.30;44.20
5466;DHT22;2755;50.728;7.108;2022-07-24T14:09:01;32.70;45.90
5466;DHT22;2755;50.728;7.108;2022-07-24T14:16:19;32.20;45.70
5466;DHT22;2755;50.728;7.108;2022-07-24T14:21:13;32.00;44.50
5466;DHT22;2755;50.728;7.108;2022-07-24T14:23:39;32.20;45.30
5466;DHT22;2755;50.728;7.108;2022-07-24T14:26:04;31.70;46.00
5466;DHT22;2755;50.728;7.108;2022-07-24T14:28:33;31.80;43.70
5466;DHT22;2755;50.728;7.108;2022-07-24T14:30:59;31.40;45.50
5466;DHT22;2755;50.728;7.108;2022-07-24T14:35:50;31.50;47.70
5466;DHT22;2755;50.728;7.108;2022-07-24T14:38:16;32.10;47.10
5466;DHT22;2755;50.728;7.108;2022-07-24T14:43:08;31.60;45.10
5466;DHT22;2755;50.728;7.108;2022-07-24T14:45:33;31.10;46.20
5466;DHT22;2755;50.728;7.108;2022-07-24T14:47:59;31.30;45.10
5466;DHT22;2755;50.728;7.108;2022-07-24T14:50:24;31.30;46.90
5466;DHT22;2755;50.728;7.108;2022-07-24T14:52:50;32.40;48.50
5466;DHT22;2755;50.728;7.108;2022-07-24T14:55:15;31.40;45.50
5466;DHT22;2755;50.728;7.108;2022-07-24T15:00:08;32.60;45.90
5466;DHT22;2755;50.728;7.108;2022-07-24T15:02:34;31.50;47.40
5466;DHT22;2755;50.728;7.108;2022-07-24T15:05:00;32.10;45.20
5466;DHT22;2755;50.728;7.108;2022-07-24T15:09:51;31.60;45.60
5466;DHT22;2755;50.728;7.108;2022-07-24T15:12:17;32.10;47.10
5466;DHT22;2755;50.728;7.108;2022-07-24T15:14:43;31.60;44.40
5466;DHT22;2755;50.728;7.108;2022-07-24T15:17:09;31.90;43.70
5466;DHT22;2755;50.728;7.108;2022-07-24T15:24:27;31.70;45.50
5466;DHT22;2755;50.728;7.108;2022-07-24T15:26:52;31.70;45.00
5466;DHT22;2755;50.728;7.108;2022-07-24T15:29:18;30.60;45.40
5466;DHT22;2755;50.728;7.108;2022-07-24T15:31:44;31.20;44.10
5466;DHT22;2755;50.728;7.108;2022-07-24T15:34:11;31.50;45.90
5466;DHT22;2755;50.728;7.108;2022-07-24T15:36:38;31.70;43.80
5466;DHT22;2755;50.728;7.108;2022-07-24T15:41:30;31.50;45.00
5466;DHT22;2755;50.728;7.108;2022-07-24T15:48:48;31.70;44.50
5466;DHT22;2755;50.728;7.108;2022-07-24T15:51:13;31.90;46.70
5466;DHT22;2755;50.728;7.108;2022-07-24T15:56:05;31.50;44.40
5466;DHT22;2755;50.728;7.108;2022-07-24T15:58:31;31.70;46.00
5466;DHT22;2755;50.728;7.108;2022-07-24T16:00:56;32.00;44.00
5466;DHT22;2755;50.728;7.108;2022-07-24T16:03:22;32.10;43.80
5466;DHT22;2755;50.728;7.108;2022-07-24T16:08:14;31.60;46.20
5466;DHT22;2755;50.728;7.108;2022-07-24T16:15:33;31.50;45.60
5466;DHT22;2755;50.728;7.108;2022-07-24T16:17:59;31.60;46.90
5466;DHT22;2755;50.728;7.108;2022-07-24T16:22:51;31.30;46.10
5466;DHT22;2755;50.728;7.108;2022-07-24T16:30:09;31.20;45.80
5466;DHT22;2755;50.728;7.108;2022-07-24T16:32:34;30.10;46.90
5466;DHT22;2755;50.728;7.108;2022-07-24T16:35:00;31.20;45.30
5466;DHT22;2755;50.728;7.108;2022-07-24T16:37:29;31.20;43.70
5466;DHT22;2755;50.728;7.108;2022-07-24T16:42:20;30.90;45.60
5466;DHT22;2755;50.728;7.108;2022-07-24T16:44:46;30.90;47.70
5466;DHT22;2755;50.728;7.108;2022-07-24T16:47:11;31.10;45.00
5466;DHT22;2755;50.728;7.108;2022-07-24T16:52:03;31.30;46.50
5466;DHT22;2755;50.728;7.108;2022-07-24T16:56:55;30.60;48.00
5466;DHT22;2755;50.728;7.108;2022-07-24T16:59:21;30.90;45.90
5466;DHT22;2755;50.728;7.108;2022-07-24T17:06:43;30.50;48.50
5466;DHT22;2755;50.728;7.108;2022-07-24T17:09:09;30.70;48.20
5466;DHT22;2755;50.728;7.108;2022-07-24T17:11:34;31.20;47.10
5466;DHT22;2755;50.728;7.108;2022-07-24T17:14:00;31.40;47.50
5466;DHT22;2755;50.728;7.108;2022-07-24T17:18:53;30.70;46.10
5466;DHT22;2755;50.728;7.108;2022-07-24T17:21:18;30.50;47.40
5466;DHT22;2755;50.728;7.108;2022-07-24T17:23:44;30.50;46.80
5466;DHT22;2755;50.728;7.108;2022-07-24T17:26:11;30.50;45.90
5466;DHT22;2755;50.728;7.108;2022-07-24T17:28:37;30.60;45.80
5466;DHT22;2755;50.728;7.108;2022-07-24T17:33:29;30.20;45.70
5466;DHT22;2755;50.728;7.108;2022-07-24T17:35:54;30.70;47.50
5466;DHT22;2755;50.728;7.108;2022-07-24T17:40:47;30.70;46.30
5466;DHT22;2755;50.728;7.108;2022-07-24T17:43:12;31.00;46.80
5466;DHT22;2755;50.728;7.108;2022-07-24T17:45:38;30.10;49.10
5466;DHT22;2755;50.728;7.108;2022-07-24T17:48:05;29.80;45.60
5466;DHT22;2755;50.728;7.108;2022-07-24T17:50:30;30.10;47.00
5466;DHT22;2755;50.728;7.108;2022-07-24T17:52:56;30.00;47.20
5466;DHT22;2755;50.728;7.108;2022-07-24T17:55:22;30.40;46.20
5466;DHT22;2755;50.728;7.108;2022-07-24T17:57:50;30.20;45.10
5466;DHT22;2755;50.728;7.108;2022-07-24T18:02:44;30.70;46.70
5466;DHT22;2755;50.728;7.108;2022-07-24T18:05:11;29.80;48.50
5466;DHT22;2755;50.728;7.108;2022-07-24T18:07:38;28.80;45.10
5466;DHT22;2755;50.728;7.108;2022-07-24T18:10:08;30.30;48.40
5466;DHT22;2755;50.728;7.108;2022-07-24T18:15:03;30.10;45.80
5466;DHT22;2755;50.728;7.108;2022-07-24T18:19:55;29.80;45.90
5466;DHT22;2755;50.728;7.108;2022-07-24T18:22:21;29.70;47.10
5466;DHT22;2755;50.728;7.108;2022-07-24T18:24:46;29.50;47.00
5466;DHT22;2755;50.728;7.108;2022-07-24T18:27:13;29.60;47.10
5466;DHT22;2755;50.728;7.108;2022-07-24T18:34:31;29.60;49.30
5466;DHT22;2755;50.728;7.108;2022-07-24T18:41:49;29.50;51.80
5466;DHT22;2755;50.728;7.108;2022-07-24T18:49:06;29.00;52.00
5466;DHT22;2755;50.728;7.108;2022-07-24T18:56:25;28.70;50.80
5466;DHT22;2755;50.728;7.108;2022-07-24T19:06:09;28.40;52.30
5466;DHT22;2755;50.728;7.108;2022-07-24T19:11:00;28.10;52.50
5466;DHT22;2755;50.728;7.108;2022-07-24T19:13:26;28.50;53.70
5466;DHT22;2755;50.728;7.108;2022-07-24T19:18:17;28.40;55.50
5466;DHT22;2755;50.728;7.108;2022-07-24T19:30:27;27.40;56.90
5466;DHT22;2755;50.728;7.108;2022-07-24T19:32:53;27.90;57.60
5466;DHT22;2755;50.728;7.108;2022-07-24T19:35:19;27.20;55.40
5466;DHT22;2755;50.728;7.108;2022-07-24T19:40:11;27.20;56.80
5466;DHT22;2755;50.728;7.108;2022-07-24T19:45:03;27.10;56.00
5466;DHT22;2755;50.728;7.108;2022-07-24T19:52:21;26.40;56.80
5466;DHT22;2755;50.728;7.108;2022-07-24T19:57:14;26.70;61.50
5466;DHT22;2755;50.728;7.108;2022-07-24T20:09:24;26.20;62.90
5466;DHT22;2755;50.728;7.108;2022-07-24T20:11:50;26.20;62.70
5466;DHT22;2755;50.728;7.108;2022-07-24T20:14:17;26.10;60.50
5466;DHT22;2755;50.728;7.108;2022-07-24T20:19:08;25.60;63.40
5466;DHT22;2755;50.728;7.108;2022-07-24T20:21:36;25.70;64.20
5466;DHT22;2755;50.728;7.108;2022-07-24T20:24:02;26.00;62.60
5466;DHT22;2755;50.728;7.108;2022-07-24T20:26:27;25.50;63.50
5466;DHT22;2755;50.728;7.108;2022-07-24T20:31:19;25.90;66.40
5466;DHT22;2755;50.728;7.108;2022-07-24T20:33:45;26.70;64.80
5466;DHT22;2755;50.728;7.108;2022-07-24T20:36:10;25.50;65.50
5466;DHT22;2755;50.728;7.108;2022-07-24T20:41:02;25.30;67.20
5466;DHT22;2755;50.728;7.108;2022-07-24T20:43:28;25.40;71.30
5466;DHT22;2755;50.728;7.108;2022-07-24T20:48:19;25.20;69.80
5466;DHT22;2755;50.728;7.108;2022-07-24T21:07:48;24.70;66.50
5466;DHT22;2755;50.728;7.108;2022-07-24T21:12:40;25.10;68.50
5466;DHT22;2755;50.728;7.108;2022-07-24T21:15:06;24.50;67.00
5466;DHT22;2755;50.728;7.108;2022-07-24T21:17:32;24.70;68.40
5466;DHT22;2755;50.728;7.108;2022-07-24T21:19:58;24.50;68.80
5466;DHT22;2755;50.728;7.108;2022-07-24T21:22:24;24.50;67.40
5466;DHT22;2755;50.728;7.108;2022-07-24T21:29:42;25.60;68.70
5466;DHT22;2755;50.728;7.108;2022-07-24T21:32:07;25.00;70.90
5466;DHT22;2755;50.728;7.108;2022-07-24T21:34:33;24.50;70.70
5466;DHT22;2755;50.728;7.108;2022-07-24T21:41:50;24.50;71.20
5466;DHT22;2755;50.728;7.108;2022-07-24T21:44:16;24.40;68.10
5466;DHT22;2755;50.728;7.108;2022-07-24T21:49:07;24.20;68.40
5466;DHT22;2755;50.728;7.108;2022-07-24T21:51:33;24.80;71.40
5466;DHT22;2755;50.728;7.108;2022-07-24T21:53:59;24.80;68.80
5466;DHT22;2755;50.728;7.108;2022-07-24T21:56:24;24.50;68.40
5466;DHT22;2755;50.728;7.108;2022-07-24T21:58:50;24.20;68.00
5466;DHT22;2755;50.728;7.108;2022-07-24T22:08:35;24.40;70.70
5466;DHT22;2755;50.728;7.108;2022-07-24T22:11:00;24.20;69.70
5466;DHT22;2755;50.728;7.108;2022-07-24T22:13:26;23.80;68.50
5466;DHT22;2755;50.728;7.108;2022-07-24T22:15:53;23.80;68.10
5466;DHT22;2755;50.728;7.108;2022-07-24T22:20:45;23.60;71.50
5466;DHT22;2755;50.728;7.108;2022-07-24T22:25:37;23.20;70.20
5466;DHT22;2755;50.728;7.108;2022-07-24T22:28:03;22.80;69.90
5466;DHT22;2755;50.728;7.108;2022-07-24T22:30:29;22.80;70.40
5466;DHT22;2755;50.728;7.108;2022-07-24T22:35:21;23.30;75.00
5466;DHT22;2755;50.728;7.108;2022-07-24T22:37:48;22.90;71.30
5466;DHT22;2755;50.728;7.108;2022-07-24T22:40:15;22.70;71.80
5466;DHT22;2755;50.728;7.108;2022-07-24T22:42:41;23.10;75.80
5466;DHT22;2755;50.728;7.108;2022-07-24T22:45:07;21.60;71.60
5466;DHT22;2755;50.728;7.108;2022-07-24T22:47:33;23.10;75.80
5466;DHT22;2755;50.728;7.108;2022-07-24T22:49:59;22.10;73.90
5466;DHT22;2755;50.728;7.108;2022-07-24T22:52:24;22.30;75.00
5466;DHT22;2755;50.728;7.108;2022-07-24T22:54:52;22.50;77.30
5466;DHT22;2755;50.728;7.108;2022-07-24T23:02:13;22.00;74.60
5466;DHT22;2755;50.728;7.108;2022-07-24T23:04:40;22.50;76.40
5466;DHT22;2755;50.728;7.108;2022-07-24T23:07:06;22.30;77.30
5466;DHT22;2755;50.728;7.108;2022-07-24T23:09:32;22.50;80.10
5466;DHT22;2755;50.728;7.108;2022-07-24T23:11:57;21.30;78.20
5466;DHT22;2755;50.728;7.108;2022-07-24T23:16:52;22.30;77.00
5466;DHT22;2755;50.728;7.108;2022-07-24T23:19:21;22.20;78.30
5466;DHT22;2755;50.728;7.108;2022-07-24T23:26:38;22.60;86.20
5466;DHT22;2755;50.728;7.108;2022-07-24T23:29:04;22.00;84.50
5466;DHT22;2755;50.728;7.108;2022-07-24T23:31:30;22.00;84.40
5466;DHT22;2755;50.728;7.108;2022-07-24T23:33:56;22.00;85.50